PRM4211 KMSP-CYUL
Flight info
| Callsign | PRM4211 |
|---|---|
| Flight time | 2h 0m |
| Altitude | 35000 |
| Route | WLSTN7 WLSTN DCT SSM DCT BEMOG LFLER7 |
| Aircraft | B742/H-SDFHIRWXY/L |
Departure
| Time | 2026-05-06 23:13 |
|---|---|
| Airport | Minneapolis–Saint Paul International Airport / Wold–Chamberlain Field (KMSP) |
Arrival
| Time | 2026-05-07 01:13 |
|---|---|
| Airport | Montreal / Pierre Elliott Trudeau International Airport (CYUL) |
| Time | Latitude | Longitude | Altitude | Speed | Heading |
|---|---|---|---|---|---|
| 2026-05-06 22:26 | 44.88127 | -93.23073 | 847 ft | 0 kts | 33° |
| 2026-05-06 22:57 | 44.88122 | -93.23077 | 847 ft | 2 kts | 28° |
| 2026-05-06 22:57 | 44.88109 | -93.23087 | 847 ft | 2 kts | 33° |
| 2026-05-06 22:58 | 44.88098 | -93.23102 | 847 ft | 2 kts | 53° |
| 2026-05-06 22:58 | 44.88091 | -93.23120 | 847 ft | 2 kts | 69° |
| 2026-05-06 22:58 | 44.88087 | -93.23141 | 847 ft | 2 kts | 84° |
| 2026-05-06 22:58 | 44.88087 | -93.23161 | 847 ft | 2 kts | 99° |
| 2026-05-06 22:59 | 44.88091 | -93.23182 | 847 ft | 2 kts | 114° |
| 2026-05-06 22:59 | 44.88095 | -93.23193 | 847 ft | 1 kts | 123° |
| 2026-05-06 22:59 | 44.88096 | -93.23196 | 847 ft | 0 kts | 124° |
| 2026-05-06 23:01 | 44.88090 | -93.23183 | 847 ft | 3 kts | 124° |
| 2026-05-06 23:02 | 44.88071 | -93.23143 | 847 ft | 6 kts | 123° |
| 2026-05-06 23:02 | 44.88038 | -93.23071 | 847 ft | 9 kts | 123° |
| 2026-05-06 23:02 | 44.88002 | -93.22993 | 847 ft | 8 kts | 122° |
| 2026-05-06 23:02 | 44.87978 | -93.22929 | 847 ft | 6 kts | 118° |
| 2026-05-06 23:03 | 44.87956 | -93.22876 | 847 ft | 6 kts | 122° |
| 2026-05-06 23:03 | 44.87930 | -93.22828 | 847 ft | 6 kts | 133° |
| 2026-05-06 23:03 | 44.87901 | -93.22784 | 847 ft | 6 kts | 134° |
| 2026-05-06 23:03 | 44.87871 | -93.22740 | 847 ft | 5 kts | 136° |
| 2026-05-06 23:04 | 44.87844 | -93.22705 | 847 ft | 4 kts | 136° |
| 2026-05-06 23:04 | 44.87819 | -93.22669 | 847 ft | 5 kts | 135° |
| 2026-05-06 23:04 | 44.87797 | -93.22617 | 847 ft | 6 kts | 99° |
| 2026-05-06 23:04 | 44.87817 | -93.22558 | 847 ft | 7 kts | 36° |
| 2026-05-06 23:05 | 44.87868 | -93.22513 | 847 ft | 9 kts | 33° |
| 2026-05-06 23:05 | 44.87918 | -93.22450 | 847 ft | 10 kts | 47° |
| 2026-05-06 23:05 | 44.87971 | -93.22371 | 847 ft | 11 kts | 46° |
| 2026-05-06 23:05 | 44.88029 | -93.22284 | 847 ft | 12 kts | 47° |
| 2026-05-06 23:06 | 44.88084 | -93.22182 | 847 ft | 13 kts | 70° |
| 2026-05-06 23:06 | 44.88065 | -93.22055 | 847 ft | 14 kts | 121° |
| 2026-05-06 23:06 | 44.88010 | -93.21931 | 847 ft | 15 kts | 122° |
| 2026-05-06 23:06 | 44.87956 | -93.21809 | 846 ft | 14 kts | 121° |
| 2026-05-06 23:07 | 44.87909 | -93.21699 | 847 ft | 12 kts | 121° |
| 2026-05-06 23:07 | 44.87869 | -93.21606 | 847 ft | 10 kts | 121° |
| 2026-05-06 23:07 | 44.87837 | -93.21529 | 847 ft | 8 kts | 120° |
| 2026-05-06 23:07 | 44.87812 | -93.21469 | 847 ft | 6 kts | 119° |
| 2026-05-06 23:08 | 44.87795 | -93.21425 | 847 ft | 4 kts | 118° |
| 2026-05-06 23:08 | 44.87785 | -93.21399 | 847 ft | 1 kts | 117° |
| 2026-05-06 23:08 | 44.87778 | -93.21379 | 847 ft | 3 kts | 120° |
| 2026-05-06 23:08 | 44.87758 | -93.21336 | 847 ft | 7 kts | 123° |
| 2026-05-06 23:09 | 44.87720 | -93.21252 | 846 ft | 12 kts | 123° |
| 2026-05-06 23:09 | 44.87605 | -93.20993 | 847 ft | 21 kts | 122° |
| 2026-05-06 23:09 | 44.87520 | -93.20805 | 847 ft | 22 kts | 124° |
| 2026-05-06 23:10 | 44.87411 | -93.20655 | 846 ft | 20 kts | 143° |
| 2026-05-06 23:10 | 44.87327 | -93.20507 | 846 ft | 18 kts | 122° |
| 2026-05-06 23:10 | 44.87271 | -93.20376 | 846 ft | 13 kts | 120° |
| 2026-05-06 23:10 | 44.87240 | -93.20272 | 847 ft | 10 kts | 78° |
| 2026-05-06 23:11 | 44.87279 | -93.20203 | 846 ft | 8 kts | 39° |
| 2026-05-06 23:11 | 44.87326 | -93.20170 | 846 ft | 6 kts | 11° |
| 2026-05-06 23:11 | 44.87372 | -93.20178 | 846 ft | 7 kts | 328° |
| 2026-05-06 23:11 | 44.87400 | -93.20232 | 846 ft | 6 kts | 299° |
| 2026-05-06 23:12 | 44.87418 | -93.20277 | 846 ft | 4 kts | 300° |
| 2026-05-06 23:12 | 44.87431 | -93.20308 | 847 ft | 6 kts | 301° |
| 2026-05-06 23:12 | 44.87565 | -93.20618 | 847 ft | 72 kts | 301° |
| 2026-05-06 23:12 | 44.87945 | -93.21500 | 847 ft | 136 kts | 301° |
| 2026-05-06 23:13 | 44.88530 | -93.22828 | 1034 ft | 172 kts | 302° |
| 2026-05-06 23:13 | 44.88943 | -93.24412 | 1543 ft | 178 kts | 278° |
| 2026-05-06 23:13 | 44.89527 | -93.25976 | 1982 ft | 188 kts | 322° |
| 2026-05-06 23:13 | 44.90764 | -93.26662 | 2310 ft | 199 kts | 347° |
| 2026-05-06 23:14 | 44.92185 | -93.26695 | 2625 ft | 213 kts | 18° |
| 2026-05-06 23:14 | 44.93424 | -93.25451 | 2950 ft | 227 kts | 47° |
| 2026-05-06 23:14 | 44.94495 | -93.23747 | 3263 ft | 241 kts | 45° |
| 2026-05-06 23:14 | 44.95655 | -93.21938 | 3588 ft | 255 kts | 46° |
| 2026-05-06 23:15 | 44.96893 | -93.20006 | 3931 ft | 269 kts | 45° |
| 2026-05-06 23:15 | 44.98136 | -93.18063 | 4589 ft | 269 kts | 45° |
| 2026-05-06 23:15 | 44.99408 | -93.16083 | 5223 ft | 272 kts | 45° |
| 2026-05-06 23:15 | 45.00681 | -93.14098 | 5848 ft | 274 kts | 45° |
| 2026-05-06 23:16 | 45.01964 | -93.12101 | 6459 ft | 277 kts | 44° |
| 2026-05-06 23:16 | 45.03266 | -93.10077 | 7031 ft | 280 kts | 44° |
| 2026-05-06 23:16 | 45.04575 | -93.08041 | 7594 ft | 282 kts | 44° |
| 2026-05-06 23:16 | 45.05898 | -93.05987 | 8154 ft | 284 kts | 45° |
| 2026-05-06 23:17 | 45.07249 | -93.03890 | 8675 ft | 287 kts | 44° |
| 2026-05-06 23:17 | 45.08585 | -93.01817 | 9160 ft | 286 kts | 44° |
| 2026-05-06 23:17 | 45.09949 | -92.99706 | 9561 ft | 297 kts | 44° |
| 2026-05-06 23:17 | 45.11354 | -92.97526 | 10289 ft | 298 kts | 44° |
| 2026-05-06 23:18 | 45.12762 | -92.95341 | 10692 ft | 311 kts | 45° |
| 2026-05-06 23:18 | 45.14241 | -92.92954 | 10912 ft | 331 kts | 47° |
| 2026-05-06 23:18 | 45.15734 | -92.90359 | 11127 ft | 351 kts | 49° |
| 2026-05-06 23:18 | 45.17273 | -92.87478 | 11346 ft | 371 kts | 51° |
| 2026-05-06 23:19 | 45.18785 | -92.84426 | 11560 ft | 389 kts | 53° |
| 2026-05-06 23:19 | 45.20302 | -92.81132 | 11929 ft | 401 kts | 55° |
| 2026-05-06 23:19 | 45.21776 | -92.77750 | 12687 ft | 402 kts | 56° |
| 2026-05-06 23:19 | 45.23098 | -92.74277 | 13303 ft | 407 kts | 63° |
| 2026-05-06 23:20 | 45.24135 | -92.70515 | 13901 ft | 413 kts | 69° |
| 2026-05-06 23:20 | 45.24950 | -92.66538 | 14522 ft | 418 kts | 73° |
| 2026-05-06 23:20 | 45.25618 | -92.62530 | 15143 ft | 422 kts | 76° |
| 2026-05-06 23:20 | 45.26218 | -92.58388 | 15736 ft | 426 kts | 76° |
| 2026-05-06 23:21 | 45.26793 | -92.54264 | 16333 ft | 430 kts | 76° |
| 2026-05-06 23:21 | 45.27372 | -92.50118 | 16912 ft | 434 kts | 76° |
| 2026-05-06 23:21 | 45.27967 | -92.45891 | 17477 ft | 437 kts | 76° |
| 2026-05-06 23:21 | 45.28575 | -92.41598 | 18051 ft | 441 kts | 76° |
| 2026-05-06 23:22 | 45.29177 | -92.37350 | 18611 ft | 444 kts | 76° |
| 2026-05-06 23:22 | 45.29793 | -92.32982 | 19161 ft | 448 kts | 77° |
| 2026-05-06 23:22 | 45.30381 | -92.28648 | 19690 ft | 452 kts | 77° |
| 2026-05-06 23:22 | 45.30975 | -92.24251 | 20218 ft | 455 kts | 77° |
| 2026-05-06 23:23 | 45.31578 | -92.19837 | 20732 ft | 459 kts | 77° |
| 2026-05-06 23:23 | 45.32201 | -92.15321 | 21241 ft | 462 kts | 77° |
| 2026-05-06 23:23 | 45.32819 | -92.10860 | 21741 ft | 465 kts | 77° |
| 2026-05-06 23:23 | 45.33447 | -92.06328 | 22232 ft | 467 kts | 77° |
| 2026-05-06 23:24 | 45.34073 | -92.01811 | 22703 ft | 470 kts | 77° |
| 2026-05-06 23:24 | 45.34711 | -91.97198 | 23157 ft | 473 kts | 77° |
| 2026-05-06 23:24 | 45.35342 | -91.92616 | 23588 ft | 476 kts | 77° |
| 2026-05-06 23:24 | 45.35982 | -91.87964 | 24011 ft | 478 kts | 77° |
| 2026-05-06 23:25 | 45.36621 | -91.83299 | 24422 ft | 481 kts | 77° |
| 2026-05-06 23:25 | 45.37260 | -91.78622 | 24802 ft | 483 kts | 77° |
| 2026-05-06 23:25 | 45.37902 | -91.73914 | 25159 ft | 486 kts | 77° |
| 2026-05-06 23:25 | 45.38540 | -91.69212 | 25507 ft | 489 kts | 77° |
| 2026-05-06 23:26 | 45.39187 | -91.64430 | 25849 ft | 492 kts | 77° |
| 2026-05-06 23:26 | 45.39831 | -91.59650 | 26132 ft | 494 kts | 77° |
| 2026-05-06 23:26 | 45.40476 | -91.54853 | 26396 ft | 497 kts | 77° |
| 2026-05-06 23:26 | 45.41132 | -91.49955 | 26661 ft | 500 kts | 77° |
| 2026-05-06 23:27 | 45.41785 | -91.45058 | 26920 ft | 503 kts | 77° |
| 2026-05-06 23:27 | 45.42438 | -91.40153 | 27157 ft | 506 kts | 77° |
| 2026-05-06 23:27 | 45.43088 | -91.35249 | 27382 ft | 509 kts | 77° |
| 2026-05-06 23:27 | 45.43730 | -91.30283 | 27596 ft | 512 kts | 79° |
| 2026-05-06 23:28 | 45.44359 | -91.25263 | 27811 ft | 515 kts | 79° |
| 2026-05-06 23:28 | 45.44988 | -91.20267 | 28018 ft | 517 kts | 79° |
| 2026-05-06 23:28 | 45.45639 | -91.15153 | 28224 ft | 520 kts | 78° |
| 2026-05-06 23:28 | 45.46287 | -91.10104 | 28421 ft | 522 kts | 78° |
| 2026-05-06 23:29 | 45.46948 | -91.04988 | 28615 ft | 525 kts | 78° |
| 2026-05-06 23:29 | 45.47631 | -90.99860 | 28799 ft | 527 kts | 77° |
| 2026-05-06 23:29 | 45.48449 | -90.94774 | 28979 ft | 529 kts | 75° |
| 2026-05-06 23:29 | 45.49346 | -90.89670 | 29159 ft | 532 kts | 75° |
| 2026-05-06 23:30 | 45.50256 | -90.84582 | 29333 ft | 534 kts | 75° |
| 2026-05-06 23:30 | 45.51169 | -90.79427 | 29503 ft | 536 kts | 75° |
| 2026-05-06 23:30 | 45.52073 | -90.74239 | 29671 ft | 539 kts | 75° |
| 2026-05-06 23:30 | 45.52961 | -90.69074 | 29848 ft | 541 kts | 75° |
| 2026-05-06 23:31 | 45.53846 | -90.63872 | 30022 ft | 543 kts | 75° |
| 2026-05-06 23:31 | 45.54736 | -90.58612 | 30197 ft | 545 kts | 75° |
| 2026-05-06 23:31 | 45.55626 | -90.53327 | 30376 ft | 547 kts | 75° |
| 2026-05-06 23:31 | 45.56510 | -90.48061 | 30550 ft | 549 kts | 75° |
| 2026-05-06 23:32 | 45.57403 | -90.42725 | 30717 ft | 551 kts | 75° |
| 2026-05-06 23:32 | 45.58298 | -90.37363 | 30918 ft | 551 kts | 75° |
| 2026-05-06 23:32 | 45.59169 | -90.32095 | 31169 ft | 550 kts | 76° |
| 2026-05-06 23:32 | 45.60026 | -90.26759 | 31409 ft | 549 kts | 77° |
| 2026-05-06 23:33 | 45.60876 | -90.21433 | 31638 ft | 549 kts | 77° |
| 2026-05-06 23:33 | 45.61731 | -90.16119 | 31848 ft | 548 kts | 77° |
| 2026-05-06 23:33 | 45.62581 | -90.10877 | 32043 ft | 548 kts | 76° |
| 2026-05-06 23:33 | 45.63453 | -90.05534 | 32240 ft | 548 kts | 76° |
| 2026-05-06 23:34 | 45.64320 | -90.00221 | 32435 ft | 548 kts | 76° |
| 2026-05-06 23:34 | 45.65185 | -89.94914 | 32632 ft | 548 kts | 76° |
| 2026-05-06 23:34 | 45.66042 | -89.89648 | 32833 ft | 548 kts | 76° |
| 2026-05-06 23:34 | 45.66903 | -89.84333 | 33034 ft | 547 kts | 76° |
| 2026-05-06 23:35 | 45.67764 | -89.79002 | 33231 ft | 547 kts | 76° |
| 2026-05-06 23:35 | 45.68619 | -89.73683 | 33411 ft | 547 kts | 77° |
| 2026-05-06 23:35 | 45.69469 | -89.68391 | 33567 ft | 548 kts | 77° |
| 2026-05-06 23:35 | 45.70320 | -89.63067 | 33721 ft | 548 kts | 77° |
| 2026-05-06 23:36 | 45.71165 | -89.57760 | 33879 ft | 549 kts | 77° |
| 2026-05-06 23:36 | 45.72017 | -89.52395 | 34045 ft | 549 kts | 77° |
| 2026-05-06 23:36 | 45.72867 | -89.47024 | 34210 ft | 550 kts | 77° |
| 2026-05-06 23:36 | 45.73702 | -89.41727 | 34370 ft | 550 kts | 77° |
| 2026-05-06 23:37 | 45.74544 | -89.36372 | 34530 ft | 550 kts | 77° |
| 2026-05-06 23:37 | 45.75378 | -89.30997 | 34683 ft | 551 kts | 78° |
| 2026-05-06 23:37 | 45.76182 | -89.25651 | 34823 ft | 551 kts | 78° |
| 2026-05-06 23:37 | 45.76996 | -89.20226 | 34963 ft | 552 kts | 78° |
| 2026-05-06 23:38 | 45.77810 | -89.14855 | 35099 ft | 553 kts | 78° |
| 2026-05-06 23:38 | 45.78628 | -89.09506 | 35230 ft | 553 kts | 78° |
| 2026-05-06 23:38 | 45.79457 | -89.04105 | 35357 ft | 554 kts | 78° |
| 2026-05-06 23:38 | 45.80288 | -88.98698 | 35474 ft | 555 kts | 78° |
| 2026-05-06 23:39 | 45.81110 | -88.93338 | 35580 ft | 555 kts | 78° |
| 2026-05-06 23:39 | 45.81939 | -88.87914 | 35687 ft | 556 kts | 78° |
| 2026-05-06 23:39 | 45.82767 | -88.82474 | 35794 ft | 557 kts | 78° |
| 2026-05-06 23:39 | 45.83594 | -88.77020 | 35895 ft | 557 kts | 78° |
| 2026-05-06 23:40 | 45.84416 | -88.71579 | 35990 ft | 558 kts | 78° |
| 2026-05-06 23:40 | 45.86052 | -88.60696 | 36178 ft | 558 kts | 78° |
| 2026-05-06 23:41 | 45.87677 | -88.49805 | 36349 ft | 559 kts | 78° |
| 2026-05-06 23:41 | 45.89295 | -88.38890 | 36511 ft | 559 kts | 78° |
| 2026-05-06 23:42 | 45.90871 | -88.28017 | 36646 ft | 559 kts | 79° |
| 2026-05-06 23:42 | 45.92419 | -88.17022 | 36771 ft | 559 kts | 79° |
| 2026-05-06 23:43 | 45.93978 | -88.06142 | 36895 ft | 558 kts | 79° |
| 2026-05-06 23:43 | 45.95551 | -87.95217 | 36958 ft | 559 kts | 79° |
| 2026-05-06 23:44 | 45.97129 | -87.84198 | 36964 ft | 561 kts | 79° |
| 2026-05-06 23:44 | 45.98681 | -87.73278 | 36965 ft | 561 kts | 79° |
| 2026-05-06 23:45 | 46.00241 | -87.62207 | 36966 ft | 562 kts | 79° |
| 2026-05-06 23:45 | 46.01776 | -87.51236 | 36967 ft | 562 kts | 79° |
| 2026-05-06 23:46 | 46.03316 | -87.40151 | 36967 ft | 563 kts | 79° |
| 2026-05-06 23:46 | 46.04818 | -87.29124 | 36966 ft | 562 kts | 80° |
| 2026-05-06 23:47 | 46.06272 | -87.18055 | 36969 ft | 561 kts | 80° |
| 2026-05-06 23:47 | 46.07749 | -87.07002 | 36974 ft | 561 kts | 79° |
| 2026-05-06 23:48 | 46.09238 | -86.95939 | 36977 ft | 560 kts | 79° |
| 2026-05-06 23:48 | 46.10706 | -86.84966 | 36975 ft | 560 kts | 79° |
| 2026-05-06 23:49 | 46.12175 | -86.73871 | 36972 ft | 561 kts | 80° |
| 2026-05-06 23:49 | 46.13626 | -86.62834 | 36972 ft | 561 kts | 80° |
| 2026-05-06 23:50 | 46.15064 | -86.51822 | 36973 ft | 561 kts | 80° |
| 2026-05-06 23:50 | 46.17223 | -86.35134 | 36976 ft | 563 kts | 80° |
| 2026-05-06 23:51 | 46.18597 | -86.24018 | 36977 ft | 563 kts | 81° |
| 2026-05-06 23:51 | 46.19967 | -86.12866 | 36977 ft | 564 kts | 81° |
| 2026-05-06 23:52 | 46.21364 | -86.01690 | 36977 ft | 564 kts | 81° |
| 2026-05-06 23:52 | 46.22757 | -85.90557 | 36978 ft | 565 kts | 81° |
| 2026-05-06 23:53 | 46.24142 | -85.79386 | 36977 ft | 566 kts | 81° |
| 2026-05-06 23:53 | 46.25526 | -85.68125 | 36975 ft | 566 kts | 81° |
| 2026-05-06 23:54 | 46.26888 | -85.56955 | 36970 ft | 566 kts | 81° |
| 2026-05-06 23:54 | 46.28250 | -85.45670 | 36967 ft | 567 kts | 81° |
| 2026-05-06 23:55 | 46.29588 | -85.34488 | 36966 ft | 567 kts | 82° |
| 2026-05-06 23:55 | 46.30876 | -85.23184 | 36965 ft | 566 kts | 82° |
| 2026-05-06 23:56 | 46.32148 | -85.11999 | 36966 ft | 566 kts | 82° |
| 2026-05-06 23:56 | 46.33453 | -85.00745 | 36967 ft | 565 kts | 82° |
| 2026-05-06 23:57 | 46.34750 | -84.89547 | 36972 ft | 565 kts | 82° |
| 2026-05-06 23:57 | 46.36039 | -84.78316 | 36977 ft | 565 kts | 82° |
| 2026-05-06 23:58 | 46.37313 | -84.67091 | 36980 ft | 565 kts | 82° |
| 2026-05-06 23:58 | 46.38573 | -84.55891 | 36979 ft | 566 kts | 82° |
| 2026-05-06 23:59 | 46.39834 | -84.44571 | 36978 ft | 567 kts | 82° |
| 2026-05-06 23:59 | 46.41048 | -84.33255 | 36970 ft | 565 kts | 86° |
| 2026-05-07 00:00 | 46.41219 | -84.21937 | 36978 ft | 563 kts | 91° |
| 2026-05-07 00:00 | 46.41332 | -84.10560 | 36970 ft | 565 kts | 91° |
| 2026-05-07 00:01 | 46.41427 | -83.99171 | 36962 ft | 566 kts | 91° |
| 2026-05-07 00:01 | 46.41497 | -83.87801 | 36961 ft | 566 kts | 91° |
| 2026-05-07 00:02 | 46.41553 | -83.76322 | 36961 ft | 567 kts | 91° |
| 2026-05-07 00:02 | 46.41599 | -83.64906 | 36960 ft | 567 kts | 91° |
| 2026-05-07 00:03 | 46.41633 | -83.53426 | 36956 ft | 567 kts | 91° |
| 2026-05-07 00:03 | 46.41656 | -83.41957 | 36953 ft | 567 kts | 91° |
| 2026-05-07 00:04 | 46.41658 | -83.30547 | 36950 ft | 567 kts | 93° |
| 2026-05-07 00:04 | 46.41595 | -83.19061 | 36949 ft | 566 kts | 93° |
| 2026-05-07 00:05 | 46.41555 | -83.07702 | 36949 ft | 566 kts | 92° |
| 2026-05-07 00:05 | 46.41530 | -82.96236 | 36949 ft | 566 kts | 92° |
| 2026-05-07 00:06 | 46.41498 | -82.84847 | 36951 ft | 566 kts | 92° |
| 2026-05-07 00:06 | 46.41454 | -82.73382 | 36952 ft | 566 kts | 92° |
| 2026-05-07 00:07 | 46.41397 | -82.61897 | 36951 ft | 567 kts | 92° |
| 2026-05-07 00:07 | 46.41329 | -82.50504 | 36945 ft | 568 kts | 92° |
| 2026-05-07 00:08 | 46.41249 | -82.39092 | 36941 ft | 568 kts | 93° |
| 2026-05-07 00:08 | 46.41132 | -82.27590 | 36938 ft | 569 kts | 94° |
| 2026-05-07 00:09 | 46.40971 | -82.16145 | 36937 ft | 569 kts | 94° |
| 2026-05-07 00:09 | 46.40836 | -82.04636 | 36936 ft | 569 kts | 94° |
| 2026-05-07 00:10 | 46.40710 | -81.93209 | 36898 ft | 569 kts | 94° |
| 2026-05-07 00:10 | 46.40574 | -81.81667 | 36892 ft | 570 kts | 93° |
| 2026-05-07 00:11 | 46.40426 | -81.70222 | 36924 ft | 572 kts | 93° |
| 2026-05-07 00:11 | 46.40265 | -81.58665 | 36918 ft | 573 kts | 93° |
| 2026-05-07 00:12 | 46.40091 | -81.47059 | 36909 ft | 574 kts | 93° |
| 2026-05-07 00:12 | 46.39906 | -81.35410 | 36904 ft | 574 kts | 93° |
| 2026-05-07 00:13 | 46.39661 | -81.23829 | 36903 ft | 573 kts | 94° |
| 2026-05-07 00:13 | 46.39405 | -81.12296 | 36898 ft | 573 kts | 94° |
| 2026-05-07 00:14 | 46.39175 | -81.00726 | 36899 ft | 572 kts | 94° |
| 2026-05-07 00:14 | 46.38947 | -80.89228 | 36900 ft | 572 kts | 94° |
| 2026-05-07 00:15 | 46.38706 | -80.77691 | 36902 ft | 571 kts | 94° |
| 2026-05-07 00:15 | 46.38453 | -80.66196 | 36900 ft | 571 kts | 94° |
| 2026-05-07 00:16 | 46.38187 | -80.54680 | 36899 ft | 572 kts | 94° |
| 2026-05-07 00:16 | 46.37909 | -80.43135 | 36899 ft | 572 kts | 94° |
| 2026-05-07 00:17 | 46.37614 | -80.31573 | 36897 ft | 573 kts | 95° |
| 2026-05-07 00:17 | 46.37252 | -80.20089 | 36896 ft | 573 kts | 95° |
| 2026-05-07 00:18 | 46.36904 | -80.08476 | 36891 ft | 573 kts | 95° |
| 2026-05-07 00:18 | 46.36576 | -79.96943 | 36887 ft | 574 kts | 95° |
| 2026-05-07 00:19 | 46.36244 | -79.85429 | 36883 ft | 574 kts | 95° |
| 2026-05-07 00:19 | 46.35897 | -79.73857 | 36877 ft | 575 kts | 95° |
| 2026-05-07 00:20 | 46.35535 | -79.62248 | 36871 ft | 575 kts | 95° |
| 2026-05-07 00:20 | 46.35164 | -79.50697 | 36871 ft | 575 kts | 95° |
| 2026-05-07 00:21 | 46.34781 | -79.39127 | 36870 ft | 575 kts | 95° |
| 2026-05-07 00:21 | 46.34360 | -79.27561 | 36868 ft | 574 kts | 96° |
| 2026-05-07 00:22 | 46.33895 | -79.16050 | 36868 ft | 573 kts | 96° |
| 2026-05-07 00:22 | 46.33458 | -79.04524 | 36869 ft | 572 kts | 96° |
| 2026-05-07 00:23 | 46.33028 | -78.92947 | 36872 ft | 572 kts | 96° |
| 2026-05-07 00:23 | 46.32590 | -78.81445 | 36874 ft | 572 kts | 96° |
| 2026-05-07 00:24 | 46.32140 | -78.69961 | 36873 ft | 572 kts | 96° |
| 2026-05-07 00:24 | 46.31678 | -78.58459 | 36869 ft | 572 kts | 96° |
| 2026-05-07 00:25 | 46.31205 | -78.46991 | 36870 ft | 572 kts | 96° |
| 2026-05-07 00:25 | 46.30717 | -78.35449 | 36872 ft | 572 kts | 96° |
| 2026-05-07 00:26 | 46.30175 | -78.23998 | 36873 ft | 571 kts | 97° |
| 2026-05-07 00:26 | 46.29619 | -78.12530 | 36873 ft | 572 kts | 97° |
| 2026-05-07 00:27 | 46.29087 | -78.01030 | 36872 ft | 572 kts | 97° |
| 2026-05-07 00:27 | 46.28554 | -77.89487 | 36871 ft | 573 kts | 97° |
| 2026-05-07 00:28 | 46.28014 | -77.78029 | 36867 ft | 573 kts | 97° |
| 2026-05-07 00:28 | 46.27457 | -77.66476 | 36862 ft | 573 kts | 97° |
| 2026-05-07 00:29 | 46.26890 | -77.54984 | 36853 ft | 573 kts | 97° |
| 2026-05-07 00:30 | 46.26027 | -77.37848 | 36843 ft | 557 kts | 97° |
| 2026-05-07 00:30 | 46.25740 | -77.32322 | 36840 ft | 552 kts | 98° |
| 2026-05-07 00:30 | 46.25102 | -77.21337 | 36844 ft | 552 kts | 98° |
| 2026-05-07 00:31 | 46.24474 | -77.10264 | 36846 ft | 553 kts | 98° |
| 2026-05-07 00:31 | 46.23867 | -76.99178 | 36849 ft | 552 kts | 98° |
| 2026-05-07 00:32 | 46.23258 | -76.88121 | 36845 ft | 551 kts | 98° |
| 2026-05-07 00:32 | 46.22637 | -76.77063 | 36842 ft | 550 kts | 98° |
| 2026-05-07 00:33 | 46.22007 | -76.66045 | 36849 ft | 550 kts | 98° |
| 2026-05-07 00:33 | 46.21365 | -76.55018 | 36860 ft | 550 kts | 98° |
| 2026-05-07 00:34 | 46.20707 | -76.43897 | 36387 ft | 555 kts | 98° |
| 2026-05-07 00:34 | 46.20374 | -76.38328 | 35827 ft | 552 kts | 98° |
| 2026-05-07 00:34 | 46.20044 | -76.32873 | 35303 ft | 549 kts | 99° |
| 2026-05-07 00:35 | 46.19689 | -76.27437 | 34809 ft | 546 kts | 100° |
| 2026-05-07 00:35 | 46.19322 | -76.21964 | 34299 ft | 543 kts | 100° |
| 2026-05-07 00:35 | 46.18963 | -76.16528 | 33783 ft | 541 kts | 100° |
| 2026-05-07 00:35 | 46.18616 | -76.11158 | 33235 ft | 539 kts | 100° |
| 2026-05-07 00:36 | 46.18273 | -76.05788 | 32661 ft | 536 kts | 100° |
| 2026-05-07 00:36 | 46.17929 | -76.00369 | 32074 ft | 533 kts | 101° |
| 2026-05-07 00:36 | 46.17595 | -75.95120 | 31497 ft | 531 kts | 101° |
| 2026-05-07 00:36 | 46.17252 | -75.89757 | 30823 ft | 528 kts | 101° |
| 2026-05-07 00:37 | 46.16919 | -75.84560 | 30152 ft | 517 kts | 101° |
| 2026-05-07 00:37 | 46.16590 | -75.79442 | 29506 ft | 507 kts | 102° |
| 2026-05-07 00:37 | 46.16266 | -75.74436 | 28858 ft | 498 kts | 102° |
| 2026-05-07 00:37 | 46.15939 | -75.69455 | 28112 ft | 489 kts | 102° |
| 2026-05-07 00:38 | 46.15621 | -75.64671 | 27348 ft | 481 kts | 102° |
| 2026-05-07 00:38 | 46.15295 | -75.59842 | 26567 ft | 474 kts | 102° |
| 2026-05-07 00:38 | 46.14917 | -75.55199 | 25803 ft | 466 kts | 104° |
| 2026-05-07 00:38 | 46.14499 | -75.50577 | 25018 ft | 460 kts | 104° |
| 2026-05-07 00:39 | 46.14080 | -75.46024 | 24240 ft | 454 kts | 104° |
| 2026-05-07 00:39 | 46.13663 | -75.41550 | 23473 ft | 449 kts | 104° |
| 2026-05-07 00:39 | 46.13253 | -75.37176 | 22722 ft | 444 kts | 104° |
| 2026-05-07 00:39 | 46.12833 | -75.32755 | 21984 ft | 439 kts | 105° |
| 2026-05-07 00:40 | 46.12402 | -75.28443 | 21266 ft | 434 kts | 105° |
| 2026-05-07 00:40 | 46.12072 | -75.25149 | 20715 ft | 431 kts | 105° |
| 2026-05-07 00:40 | 46.11660 | -75.20938 | 20153 ft | 422 kts | 104° |
| 2026-05-07 00:40 | 46.11259 | -75.16751 | 19604 ft | 413 kts | 104° |
| 2026-05-07 00:41 | 46.10873 | -75.12705 | 19073 ft | 405 kts | 104° |
| 2026-05-07 00:41 | 46.10490 | -75.08695 | 18539 ft | 398 kts | 105° |
| 2026-05-07 00:41 | 46.10119 | -75.04840 | 18017 ft | 391 kts | 105° |
| 2026-05-07 00:41 | 46.09740 | -75.00944 | 17487 ft | 384 kts | 105° |
| 2026-05-07 00:42 | 46.09376 | -74.97212 | 16976 ft | 378 kts | 105° |
| 2026-05-07 00:42 | 46.09004 | -74.93476 | 16457 ft | 372 kts | 105° |
| 2026-05-07 00:42 | 46.08640 | -74.89774 | 15936 ft | 367 kts | 104° |
| 2026-05-07 00:42 | 46.08292 | -74.86198 | 15420 ft | 362 kts | 104° |
| 2026-05-07 00:43 | 46.07940 | -74.82643 | 14906 ft | 357 kts | 104° |
| 2026-05-07 00:43 | 46.07586 | -74.79079 | 14382 ft | 353 kts | 104° |
| 2026-05-07 00:43 | 46.07244 | -74.75640 | 13870 ft | 349 kts | 104° |
| 2026-05-07 00:43 | 46.06895 | -74.72169 | 13347 ft | 344 kts | 103° |
| 2026-05-07 00:44 | 46.06560 | -74.68825 | 12838 ft | 340 kts | 103° |
| 2026-05-07 00:44 | 46.05848 | -74.61716 | 11736 ft | 333 kts | 102° |
| 2026-05-07 00:44 | 46.05512 | -74.58395 | 11213 ft | 330 kts | 102° |
| 2026-05-07 00:45 | 46.05186 | -74.55179 | 10702 ft | 327 kts | 102° |
| 2026-05-07 00:45 | 46.04774 | -74.51999 | 10219 ft | 318 kts | 113° |
| 2026-05-07 00:45 | 46.03689 | -74.49350 | 9778 ft | 300 kts | 138° |
| 2026-05-07 00:45 | 46.02234 | -74.47206 | 9334 ft | 296 kts | 139° |
| 2026-05-07 00:46 | 46.00734 | -74.45191 | 8893 ft | 294 kts | 142° |
| 2026-05-07 00:46 | 45.99209 | -74.43314 | 8512 ft | 291 kts | 142° |
| 2026-05-07 00:46 | 45.97687 | -74.41509 | 8137 ft | 291 kts | 142° |
| 2026-05-07 00:46 | 45.96123 | -74.39674 | 7903 ft | 288 kts | 141° |
| 2026-05-07 00:47 | 45.94569 | -74.37855 | 7825 ft | 288 kts | 141° |
| 2026-05-07 00:47 | 45.93003 | -74.36025 | 7810 ft | 290 kts | 141° |
| 2026-05-07 00:47 | 45.91423 | -74.34185 | 7806 ft | 291 kts | 142° |
| 2026-05-07 00:47 | 45.89840 | -74.32373 | 7806 ft | 292 kts | 142° |
| 2026-05-07 00:48 | 45.88242 | -74.30531 | 7808 ft | 292 kts | 141° |
| 2026-05-07 00:48 | 45.86664 | -74.28702 | 7808 ft | 292 kts | 141° |
| 2026-05-07 00:48 | 45.85061 | -74.26839 | 7808 ft | 292 kts | 141° |
| 2026-05-07 00:48 | 45.83501 | -74.25023 | 7808 ft | 292 kts | 141° |
| 2026-05-07 00:49 | 45.81921 | -74.23186 | 7810 ft | 292 kts | 141° |
| 2026-05-07 00:49 | 45.80349 | -74.21360 | 7806 ft | 282 kts | 141° |
| 2026-05-07 00:49 | 45.78860 | -74.19630 | 7805 ft | 271 kts | 141° |
| 2026-05-07 00:49 | 45.77408 | -74.17949 | 7811 ft | 270 kts | 141° |
| 2026-05-07 00:50 | 45.75940 | -74.16245 | 7812 ft | 271 kts | 140° |
| 2026-05-07 00:50 | 45.74759 | -74.14182 | 7799 ft | 272 kts | 119° |
| 2026-05-07 00:50 | 45.73833 | -74.11763 | 7503 ft | 277 kts | 117° |
| 2026-05-07 00:50 | 45.72924 | -74.09333 | 7212 ft | 273 kts | 117° |
| 2026-05-07 00:51 | 45.72028 | -74.06964 | 6922 ft | 269 kts | 118° |
| 2026-05-07 00:51 | 45.71140 | -74.04631 | 6631 ft | 265 kts | 118° |
| 2026-05-07 00:51 | 45.70256 | -74.02323 | 6337 ft | 262 kts | 118° |
| 2026-05-07 00:51 | 45.69380 | -74.00039 | 6043 ft | 261 kts | 118° |
| 2026-05-07 00:52 | 45.68510 | -73.97772 | 5864 ft | 257 kts | 118° |
| 2026-05-07 00:52 | 45.67647 | -73.95525 | 5825 ft | 258 kts | 118° |
| 2026-05-07 00:52 | 45.66775 | -73.93260 | 5815 ft | 260 kts | 118° |
| 2026-05-07 00:52 | 45.65895 | -73.90971 | 5814 ft | 261 kts | 118° |
| 2026-05-07 00:53 | 45.65027 | -73.88719 | 5812 ft | 261 kts | 118° |
| 2026-05-07 00:53 | 45.64144 | -73.86431 | 5813 ft | 261 kts | 118° |
| 2026-05-07 00:53 | 45.63270 | -73.84161 | 5813 ft | 261 kts | 118° |
| 2026-05-07 00:53 | 45.62388 | -73.81878 | 5812 ft | 261 kts | 118° |
| 2026-05-07 00:54 | 45.61523 | -73.79639 | 5812 ft | 261 kts | 118° |
| 2026-05-07 00:54 | 45.60709 | -73.77280 | 5681 ft | 263 kts | 104° |
| 2026-05-07 00:54 | 45.60690 | -73.74711 | 5487 ft | 259 kts | 70° |
| 2026-05-07 00:54 | 45.61585 | -73.72570 | 5302 ft | 253 kts | 44° |
| 2026-05-07 00:55 | 45.62862 | -73.70804 | 5106 ft | 252 kts | 40° |
| 2026-05-07 00:55 | 45.64149 | -73.69158 | 4915 ft | 250 kts | 39° |
| 2026-05-07 00:55 | 45.65449 | -73.67512 | 4722 ft | 249 kts | 39° |
| 2026-05-07 00:55 | 45.66749 | -73.65867 | 4525 ft | 249 kts | 41° |
| 2026-05-07 00:56 | 45.67645 | -73.63759 | 4326 ft | 252 kts | 77° |
| 2026-05-07 00:56 | 45.67576 | -73.61330 | 4130 ft | 245 kts | 112° |
| 2026-05-07 00:56 | 45.66653 | -73.59370 | 3941 ft | 233 kts | 134° |
| 2026-05-07 00:56 | 45.65505 | -73.57756 | 3727 ft | 225 kts | 147° |
| 2026-05-07 00:57 | 45.64095 | -73.57122 | 3534 ft | 209 kts | 187° |
| 2026-05-07 00:57 | 45.62726 | -73.57481 | 3351 ft | 195 kts | 195° |
| 2026-05-07 00:57 | 45.61405 | -73.57971 | 3180 ft | 196 kts | 194° |
| 2026-05-07 00:57 | 45.60095 | -73.58512 | 2976 ft | 192 kts | 212° |
| 2026-05-07 00:58 | 45.59029 | -73.59659 | 2860 ft | 191 kts | 219° |
| 2026-05-07 00:58 | 45.58021 | -73.60881 | 2826 ft | 190 kts | 221° |
| 2026-05-07 00:58 | 45.57036 | -73.62143 | 2819 ft | 189 kts | 222° |
| 2026-05-07 00:58 | 45.56097 | -73.63371 | 2800 ft | 178 kts | 222° |
| 2026-05-07 00:59 | 45.54299 | -73.65714 | 2780 ft | 174 kts | 220° |
| 2026-05-07 00:59 | 45.53365 | -73.66833 | 2609 ft | 176 kts | 221° |
| 2026-05-07 00:59 | 45.52462 | -73.68047 | 2237 ft | 188 kts | 225° |
| 2026-05-07 01:00 | 45.51479 | -73.69467 | 1314 ft | 221 kts | 224° |
| 2026-05-07 01:00 | 45.50337 | -73.70926 | 954 ft | 210 kts | 221° |
| 2026-05-07 01:00 | 45.49286 | -73.72315 | 390 ft | 200 kts | 223° |
| 2026-05-07 01:00 | 45.48308 | -73.73616 | 147 ft | 180 kts | 222° |
| 2026-05-07 01:01 | 45.47469 | -73.74708 | 130 ft | 154 kts | 222° |
| 2026-05-07 01:01 | 45.46545 | -73.75907 | 530 ft | 193 kts | 223° |
| 2026-05-07 01:01 | 45.45721 | -73.77304 | 1549 ft | 185 kts | 231° |
| 2026-05-07 01:01 | 45.45013 | -73.78772 | 2393 ft | 183 kts | 234° |
| 2026-05-07 01:02 | 45.44181 | -73.80188 | 3103 ft | 192 kts | 226° |
| 2026-05-07 01:02 | 45.43235 | -73.81568 | 3923 ft | 202 kts | 225° |
| 2026-05-07 01:02 | 45.42247 | -73.83005 | 4753 ft | 214 kts | 228° |
| 2026-05-07 01:02 | 45.41517 | -73.85078 | 4666 ft | 254 kts | 260° |
| 2026-05-07 01:03 | 45.41688 | -73.87534 | 4273 ft | 254 kts | 293° |
| 2026-05-07 01:03 | 45.42720 | -73.89510 | 3952 ft | 247 kts | 314° |
| 2026-05-07 01:03 | 45.43953 | -73.91152 | 3836 ft | 242 kts | 316° |
| 2026-05-07 01:03 | 45.45224 | -73.92778 | 3810 ft | 245 kts | 321° |
| 2026-05-07 01:04 | 45.46802 | -73.93652 | 3810 ft | 252 kts | 356° |
| 2026-05-07 01:04 | 45.48519 | -73.93121 | 3810 ft | 256 kts | 30° |
| 2026-05-07 01:04 | 45.49874 | -73.91490 | 3815 ft | 258 kts | 45° |
| 2026-05-07 01:04 | 45.51114 | -73.89630 | 3812 ft | 258 kts | 46° |
| 2026-05-07 01:05 | 45.52349 | -73.87746 | 3811 ft | 258 kts | 46° |
| 2026-05-07 01:05 | 45.53562 | -73.85891 | 3811 ft | 259 kts | 46° |
| 2026-05-07 01:05 | 45.54797 | -73.84001 | 3811 ft | 259 kts | 46° |
| 2026-05-07 01:05 | 45.56025 | -73.82123 | 3811 ft | 259 kts | 46° |
| 2026-05-07 01:06 | 45.57261 | -73.80234 | 3810 ft | 258 kts | 46° |
| 2026-05-07 01:06 | 45.58491 | -73.78356 | 3811 ft | 258 kts | 46° |
| 2026-05-07 01:06 | 45.59718 | -73.76489 | 3810 ft | 258 kts | 46° |
| 2026-05-07 01:06 | 45.60949 | -73.74614 | 3810 ft | 258 kts | 46° |
| 2026-05-07 01:07 | 45.62175 | -73.72743 | 3810 ft | 258 kts | 46° |
| 2026-05-07 01:07 | 45.63406 | -73.70864 | 3810 ft | 258 kts | 46° |
| 2026-05-07 01:07 | 45.64631 | -73.68999 | 3810 ft | 258 kts | 46° |
| 2026-05-07 01:07 | 45.65865 | -73.67122 | 3810 ft | 258 kts | 46° |
| 2026-05-07 01:08 | 45.67092 | -73.65256 | 3811 ft | 258 kts | 46° |
| 2026-05-07 01:08 | 45.68292 | -73.63335 | 3799 ft | 258 kts | 57° |
| 2026-05-07 01:08 | 45.68828 | -73.60938 | 3811 ft | 259 kts | 90° |
| 2026-05-07 01:08 | 45.68367 | -73.58472 | 3811 ft | 257 kts | 124° |
| 2026-05-07 01:09 | 45.67222 | -73.56541 | 3816 ft | 256 kts | 135° |
| 2026-05-07 01:09 | 45.65967 | -73.54726 | 3812 ft | 255 kts | 136° |
| 2026-05-07 01:09 | 45.64715 | -73.52950 | 3805 ft | 254 kts | 140° |
| 2026-05-07 01:09 | 45.63142 | -73.51890 | 3808 ft | 251 kts | 174° |
| 2026-05-07 01:10 | 45.61454 | -73.52243 | 3808 ft | 248 kts | 207° |
| 2026-05-07 01:10 | 45.60186 | -73.53836 | 3815 ft | 246 kts | 237° |
| 2026-05-07 01:10 | 45.59357 | -73.55962 | 3957 ft | 240 kts | 244° |
| 2026-05-07 01:10 | 45.58702 | -73.58049 | 3653 ft | 230 kts | 244° |
| 2026-05-07 01:11 | 45.57917 | -73.60083 | 3151 ft | 238 kts | 237° |
| 2026-05-07 01:11 | 45.56931 | -73.61996 | 2929 ft | 236 kts | 231° |
| 2026-05-07 01:11 | 45.55853 | -73.63712 | 2785 ft | 234 kts | 225° |
| 2026-05-07 01:11 | 45.54635 | -73.65263 | 2533 ft | 234 kts | 220° |
| 2026-05-07 01:12 | 45.53416 | -73.66785 | 2204 ft | 235 kts | 223° |
| 2026-05-07 01:12 | 45.52258 | -73.68427 | 1627 ft | 234 kts | 225° |
| 2026-05-07 01:12 | 45.51103 | -73.69990 | 938 ft | 223 kts | 220° |
| 2026-05-07 01:12 | 45.49938 | -73.71419 | 617 ft | 222 kts | 224° |
| 2026-05-07 01:13 | 45.48868 | -73.72900 | 284 ft | 200 kts | 221° |
| 2026-05-07 01:13 | 45.47906 | -73.74138 | 152 ft | 172 kts | 223° |
| 2026-05-07 01:13 | 45.47092 | -73.75187 | 130 ft | 134 kts | 225° |
| 2026-05-07 01:13 | 45.46666 | -73.75614 | 129 ft | 17 kts | 187° |
| 2026-05-07 01:14 | 45.46642 | -73.75620 | 129 ft | 0 kts | 190° |